Time;durP1;ratioP1;P1;durP2;ratioP2;P2;SDS_P1;SDS_P2;PMS_P1;PMS_P2;Temp;Humidity;BMP_temperature;BMP_pressure;BME280_temperature;BME280_humidity;BME280_pressure;Samples;Min_cycle;Max_cycle;Signal;HPM_P1;HPM_P2
2022/03/30 00:02:11;;;;;;;;;21.00;19.33;;;;;14.27;59.47;99990.63;5037958;28;45438;-83
2022/03/30 00:04:38;;;;;;;;;39.67;31.33;;;;;14.39;59.93;100003.50;5039388;28;45630;-84
2022/03/30 00:07:21;;;;;;;;;43.00;32.00;;;;;14.17;59.55;99968.38;5043192;28;45384;-85
2022/03/30 00:10:11;;;;;;;;;34.33;31.00;;;;;14.33;60.12;100010.03;5023363;28;47279;-82
2022/03/30 00:12:51;;;;;;;;;40.00;31.67;;;;;13.85;60.38;99930.41;5041846;28;45475;-83
2022/03/30 00:15:49;;;;;;;;;42.33;35.33;;;;;14.28;59.56;100000.56;5038979;28;45518;-83
2022/03/30 00:18:50;;;;;;;;;45.33;35.33;;;;;14.30;60.21;100006.66;5027761;28;45583;-82
2022/03/30 00:21:30;;;;;;;;;54.50;43.50;;;;;13.80;59.73;99929.47;5023732;28;46741;-82
2022/03/30 00:23:56;;;;;;;;;51.75;41.50;;;;;13.91;60.24;99947.88;5022503;28;45807;-84
2022/03/30 00:26:28;;;;;;;;;61.00;45.50;;;;;14.22;60.54;99990.56;5019214;28;45404;-83
2022/03/30 00:29:05;;;;;;;;;49.00;41.50;;;;;13.71;60.18;99915.28;5015930;28;46094;-81
2022/03/30 00:31:46;;;;;;;;;51.25;39.50;;;;;13.85;60.18;99941.44;5025374;28;46759;-83
2022/03/30 00:34:35;;;;;;;;;52.33;39.67;;;;;14.12;60.47;99984.88;5012349;28;45468;-81
2022/03/30 00:37:01;;;;;;;;;52.33;39.33;;;;;13.78;60.72;99933.31;5008821;28;45792;-82
2022/03/30 00:39:41;;;;;;;;;50.67;38.33;;;;;14.03;60.74;99987.22;5022719;28;45890;-83
2022/03/30 00:42:26;;;;;;;;;51.67;42.33;;;;;13.80;60.71;99948.78;5025579;28;45819;-82
2022/03/30 00:45:19;;;;;;;;;47.00;37.67;;;;;14.02;61.25;99984.69;5040722;28;45414;-83
2022/03/30 00:48:19;;;;;;;;;49.67;35.67;;;;;13.71;60.83;99924.41;5021240;28;45838;-83
2022/03/30 00:54:11;;;;;;;;;51.33;39.67;;;;;13.57;60.47;99893.56;5043531;28;45519;-83
2022/03/30 01:00:09;;;;;;;;;;;;;;;;;;;;;
2022/03/30 01:02:49;;;;;;;;;56.00;42.33;;;;;13.98;61.14;99947.69;5029059;28;74788;-84
2022/03/30 01:05:36;;;;;;;;;49.33;39.67;;;;;14.10;60.88;99962.22;5000302;28;45874;-84
2022/03/30 01:08:18;;;;;;;;;48.33;39.00;;;;;14.06;60.44;99944.53;5014450;28;45307;-85
2022/03/30 01:11:00;;;;;;;;;51.67;38.67;;;;;14.14;60.69;99955.13;5042166;28;45503;-84
2022/03/30 01:13:28;;;;;;;;;50.33;42.67;;;;;14.15;60.76;99954.03;5013475;28;46158;-81
2022/03/30 01:15:54;;;;;;;;;49.75;40.75;;;;;13.93;60.68;99907.09;5025514;28;48002;-82
2022/03/30 01:18:20;;;;;;;;;48.33;39.67;;;;;14.01;61.40;99925.13;5022224;28;45434;-82
2022/03/30 01:20:49;;;;;;;;;51.50;39.50;;;;;14.11;60.53;99936.31;5037315;28;45596;-83
2022/03/30 01:23:15;;;;;;;;;55.75;44.00;;;;;14.04;61.75;99930.13;5020268;28;45674;-82
2022/03/30 01:25:41;;;;;;;;;53.50;42.00;;;;;14.00;61.68;99923.47;5030142;28;45653;-82
2022/03/30 01:28:07;;;;;;;;;54.50;42.50;;;;;13.87;61.49;99913.63;5031406;28;45751;-84
2022/03/30 01:33:16;;;;;;;;;52.50;41.75;;;;;13.74;61.72;99899.09;5024368;28;45411;-81
2022/03/30 01:35:42;;;;;;;;;52.25;40.00;;;;;13.81;62.49;99918.22;5018053;28;47560;-82
2022/03/30 01:38:09;;;;;;;;;59.50;45.75;;;;;13.63;62.44;99896.41;5037152;28;45860;-80
2022/03/30 01:40:35;;;;;;;;;51.25;41.00;;;;;13.71;62.64;99915.28;5018405;28;45804;-83
2022/03/30 01:43:01;;;;;;;;;57.75;44.50;;;;;13.71;63.03;99918.03;5017880;28;46333;-82
2022/03/30 01:45:27;;;;;;;;;61.00;47.75;;;;;13.64;63.34;99904.44;5036597;28;46568;-80
2022/03/30 01:47:58;;;;;;;;;53.67;43.33;;;;;13.70;62.61;99914.44;5019585;28;45714;-82
2022/03/30 01:50:25;;;;;;;;;54.50;41.50;;;;;13.58;63.26;99889.72;5027871;28;44840;-82
2022/03/30 01:52:51;;;;;;;;;57.00;45.25;;;;;13.61;62.76;99899.44;5020409;28;47084;-82
2022/03/30 01:55:17;;;;;;;;;56.75;44.75;;;;;13.59;62.52;99885.91;5047078;28;45647;-81
2022/03/30 01:57:44;;;;;;;;;54.75;41.75;;;;;13.68;63.31;99902.84;5033564;28;45739;-81
2022/03/30 02:00:11;;;;;;;;;51.25;41.50;;;;;13.65;62.68;99892.31;5019473;28;45485;-82
2022/03/30 02:02:38;;;;;;;;;51.00;40.75;;;;;13.78;62.97;99896.66;5036585;28;45357;-83
2022/03/30 02:05:05;;;;;;;;;54.00;43.75;;;;;13.67;62.38;99870.88;5034436;28;45776;-83
2022/03/30 02:07:30;;;;;;;;;53.00;41.25;;;;;13.64;62.46;99856.75;5039242;28;45567;-84
2022/03/30 02:09:56;;;;;;;;;47.25;38.25;;;;;13.66;62.66;99858.16;5033300;28;45689;-82
2022/03/30 02:12:21;;;;;;;;;59.00;43.75;;;;;13.85;63.00;99879.97;5035228;28;45415;-84
2022/03/30 02:14:49;;;;;;;;;54.67;43.33;;;;;13.69;63.20;99865.94;5029077;28;45666;-81
2022/03/30 02:17:15;;;;;;;;;54.75;44.50;;;;;13.86;62.90;99882.47;5035840;28;45661;-81
2022/03/30 02:19:40;;;;;;;;;60.25;47.00;;;;;13.86;62.83;99879.72;5035014;28;45421;-81
2022/03/30 02:22:06;;;;;;;;;55.25;41.75;;;;;13.69;62.47;99846.66;5017881;28;46383;-83
2022/03/30 02:24:32;;;;;;;;;59.75;45.25;;;;;13.86;62.31;99878.88;5038116;28;47682;-81
2022/03/30 02:26:57;;;;;;;;;55.75;45.50;;;;;13.85;62.57;99872.53;5041315;28;45431;-81
2022/03/30 02:29:23;;;;;;;;;58.50;42.75;;;;;13.84;63.10;99870.84;5034971;28;45891;-83
2022/03/30 02:31:48;;;;;;;;;54.25;43.00;;;;;13.69;62.58;99845.81;5016785;28;47440;-82
2022/03/30 02:34:14;;;;;;;;;48.50;39.00;;;;;13.74;63.07;99848.63;5034959;28;46007;-80
2022/03/30 02:36:40;;;;;;;;;55.00;42.00;;;;;13.66;63.26;99846.31;5030000;28;45380;-82
2022/03/30 02:39:12;;;;;;;;;55.25;43.75;;;;;13.63;62.74;99835.81;5026563;28;45362;-81
2022/03/30 02:41:38;;;;;;;;;60.25;44.00;;;;;13.40;62.96;99816.44;5026589;28;47176;-83
2022/03/30 02:44:04;;;;;;;;;59.00;45.75;;;;;13.52;63.41;99834.81;5036017;28;45776;-82
2022/03/30 02:46:29;;;;;;;;;54.00;42.25;;;;;13.57;63.54;99838.47;5036740;28;45408;-83
2022/03/30 02:48:55;;;;;;;;;59.00;46.25;;;;;13.65;63.20;99863.94;5035272;28;45478;-82
2022/03/30 02:51:20;;;;;;;;;54.75;42.75;;;;;13.63;63.91;99868.88;5015003;28;46991;-80
2022/03/30 02:53:46;;;;;;;;;53.25;40.75;;;;;13.58;63.48;99861.38;5033988;28;45656;-82
2022/03/30 02:56:12;;;;;;;;;60.50;46.75;;;;;13.45;63.65;99846.00;5017662;28;45724;-81
2022/03/30 02:58:37;;;;;;;;;56.00;44.00;;;;;13.42;63.86;99846.50;5020506;28;45791;-80
2022/03/30 03:01:03;;;;;;;;;51.25;44.75;;;;;13.52;64.43;99862.38;5043522;28;45396;-82
2022/03/30 03:03:28;;;;;;;;;54.75;42.25;;;;;13.49;64.27;99855.44;5034735;28;46132;-80
2022/03/30 03:05:54;;;;;;;;;54.75;43.25;;;;;13.46;64.28;99850.41;5033622;28;45450;-80
2022/03/30 03:08:20;;;;;;;;;57.25;43.25;;;;;13.43;64.10;99853.69;5030016;28;45679;-81
2022/03/30 03:10:47;;;;;;;;;51.50;42.25;;;;;13.42;64.37;99852.00;5015364;28;45702;-81
2022/03/30 03:13:16;;;;;;;;;56.50;44.50;;;;;13.25;64.22;99819.75;5033392;28;46097;-81
2022/03/30 03:15:42;;;;;;;;;56.75;44.25;;;;;13.35;64.03;99835.66;5020387;28;45517;-80
2022/03/30 03:18:08;;;;;;;;;50.25;40.25;;;;;13.35;63.86;99829.28;5036650;28;45752;-80
2022/03/30 03:20:34;;;;;;;;;54.25;43.25;;;;;13.24;63.65;99801.56;5018738;28;45687;-81
2022/03/30 03:23:04;;;;;;;;;54.25;45.00;;;;;13.48;64.27;99833.66;5028906;28;45800;-79
2022/03/30 03:25:33;;;;;;;;;51.75;41.75;;;;;13.45;63.83;99828.63;5027700;28;45423;-80
2022/03/30 03:28:00;;;;;;;;;57.75;43.75;;;;;13.54;63.43;99838.16;5035797;28;44812;-77
2022/03/30 03:30:27;;;;;;;;;59.00;46.75;;;;;13.53;63.55;99837.31;5035337;28;45829;-80
2022/03/30 03:32:52;;;;;;;;;57.25;44.00;;;;;13.37;63.69;99805.09;5035187;28;45466;-80
2022/03/30 03:35:18;;;;;;;;;55.25;42.75;;;;;13.46;63.72;99820.13;5021869;28;45606;-82
2022/03/30 03:37:46;;;;;;;;;51.25;40.75;;;;;13.42;63.41;99819.78;5037995;28;45674;-81
2022/03/30 03:40:12;;;;;;;;;57.75;41.75;;;;;13.53;63.15;99845.59;5034263;28;45580;-79
2022/03/30 03:42:38;;;;;;;;;56.00;44.50;;;;;13.52;64.40;99835.66;5025723;28;47143;-80
2022/03/30 03:45:05;;;;;;;;;53.75;41.50;;;;;13.52;64.02;99832.88;5038086;28;45380;-83
2022/03/30 03:47:31;;;;;;;;;55.75;43.75;;;;;13.47;63.56;99821.78;5040587;28;45519;-82
2022/03/30 03:50:00;;;;;;;;;59.75;45.75;;;;;13.49;63.43;99822.38;5039224;28;45575;-81
2022/03/30 03:52:26;;;;;;;;;55.00;44.75;;;;;13.34;64.04;99794.59;5037124;28;45847;-80
2022/03/30 03:54:51;;;;;;;;;59.75;46.75;;;;;13.49;63.93;99819.63;5036223;28;45475;-79
2022/03/30 03:57:17;;;;;;;;;57.50;43.25;;;;;13.54;64.17;99824.38;5017747;28;45692;-80
2022/03/30 03:59:44;;;;;;;;;63.00;48.50;;;;;13.45;64.42;99814.88;5036392;28;45591;-79
2022/03/30 04:02:10;;;;;;;;;62.25;47.00;;;;;13.49;63.23;99822.38;5019931;28;48280;-79
2022/03/30 04:04:37;;;;;;;;;65.25;49.25;;;;;13.50;63.52;99818.53;5035383;28;45720;-79
2022/03/30 04:07:03;;;;;;;;;57.50;44.00;;;;;13.51;63.91;99813.84;5037497;28;45907;-80
2022/03/30 04:09:29;;;;;;;;;63.25;47.25;;;;;13.39;63.49;99791.91;5017085;28;46050;-80
2022/03/30 04:11:54;;;;;;;;;60.50;46.25;;;;;13.46;63.55;99814.63;5033506;28;45543;-81
2022/03/30 04:14:20;;;;;;;;;57.25;44.75;;;;;13.45;63.31;99807.44;5033038;28;45470;-79
2022/03/30 04:16:46;;;;;;;;;58.75;45.25;;;;;13.36;63.82;99790.47;5037108;28;45664;-81
2022/03/30 04:19:15;;;;;;;;;63.50;48.25;;;;;13.42;63.35;99800.50;5015956;28;46041;-82
2022/03/30 04:21:41;;;;;;;;;62.25;46.75;;;;;13.50;63.12;99803.91;5020378;28;46884;-80
2022/03/30 04:24:07;;;;;;;;;61.75;46.75;;;;;13.58;63.01;99806.25;5035125;28;45418;-80
2022/03/30 04:26:33;;;;;;;;;59.50;45.00;;;;;13.62;63.11;99806.59;5034531;28;45684;-81
2022/03/30 04:28:58;;;;;;;;;58.25;46.00;;;;;13.68;63.36;99805.56;5015023;28;47036;-81
2022/03/30 04:31:24;;;;;;;;;54.25;43.50;;;;;13.73;63.39;99797.41;5034035;28;45391;-83
2022/03/30 04:33:49;;;;;;;;;57.50;44.00;;;;;13.64;63.28;99776.84;5033826;28;45755;-82
2022/03/30 04:36:15;;;;;;;;;59.50;45.50;;;;;13.84;62.86;99799.19;5034929;28;46372;-81
2022/03/30 04:38:41;;;;;;;;;57.75;45.00;;;;;13.86;62.68;99794.28;5039289;28;45895;-82
2022/03/30 04:41:06;;;;;;;;;60.25;45.00;;;;;13.85;62.16;99783.50;5033709;28;45426;-82
2022/03/30 04:43:32;;;;;;;;;52.75;43.25;;;;;13.77;62.42;99758.06;5015341;28;45501;-82
2022/03/30 04:45:57;;;;;;;;;60.00;44.00;;;;;13.75;62.02;99745.59;5034891;28;45915;-81
2022/03/30 04:48:23;;;;;;;;;62.00;48.00;;;;;14.10;62.40;99794.03;5035519;28;45329;-81
2022/03/30 04:50:50;;;;;;;;;60.50;45.75;;;;;14.10;61.58;99786.59;5015211;28;46082;-82
2022/03/30 04:53:15;;;;;;;;;58.50;44.50;;;;;14.17;61.55;99785.56;5032864;28;45730;-81
2022/03/30 04:55:41;;;;;;;;;64.25;47.25;;;;;14.06;61.97;99766.13;5035349;28;45782;-82
2022/03/30 04:58:06;;;;;;;;;60.25;48.25;;;;;14.22;61.77;99783.72;5030126;28;45825;-81
2022/03/30 05:00:32;;;;;;;;;61.00;47.00;;;;;14.20;61.79;99772.09;5038063;28;45897;-81
2022/03/30 05:03:04;;;;;;;;;56.50;44.75;;;;;14.22;61.90;99775.44;5032585;28;45613;-84
2022/03/30 05:05:38;;;;;;;;;62.00;47.50;;;;;14.26;61.21;99775.75;5028230;28;45379;-83
2022/03/30 05:08:15;;;;;;;;;59.25;48.50;;;;;14.25;61.55;99780.44;5034329;28;46030;-83
2022/03/30 05:10:51;;;;;;;;;59.75;47.75;;;;;14.24;61.86;99778.78;5008933;28;45621;-80
2022/03/30 05:13:16;;;;;;;;;61.00;46.75;;;;;14.17;62.00;99771.78;5018245;28;45582;-84
2022/03/30 05:15:42;;;;;;;;;57.25;45.50;;;;;13.87;62.15;99729.78;5034011;28;45535;-84
2022/03/30 05:18:17;;;;;;;;;99.00;84.25;;;;;14.18;61.70;99766.00;5009729;28;45615;-83
2022/03/30 05:21:07;;;;;;;;;65.75;52.50;;;;;14.14;62.02;99762.09;5033175;28;46338;-80
2022/03/30 05:23:36;;;;;;;;;68.00;50.25;;;;;14.30;61.19;99782.44;4987454;28;45839;-84
2022/03/30 05:26:07;;;;;;;;;63.75;49.50;;;;;14.29;62.30;99775.22;4973848;28;45867;-81
2022/03/30 05:28:32;;;;;;;;;67.00;51.25;;;;;14.02;61.60;99739.34;4989888;28;45765;-77
2022/03/30 05:30:58;;;;;;;;;72.25;52.75;;;;;14.24;61.59;99778.78;4989784;28;47061;-79
2022/03/30 05:33:42;;;;;;;;;70.25;53.25;;;;;14.20;61.42;99779.53;4992974;28;45809;-77
2022/03/30 05:36:08;;;;;;;;;68.50;51.25;;;;;14.13;61.87;99779.72;4992733;28;45815;-87
2022/03/30 05:38:34;;;;;;;;;68.25;52.50;;;;;14.08;61.73;99771.41;4977249;28;45534;-78
2022/03/30 05:41:02;;;;;;;;;67.00;51.25;;;;;13.96;62.44;99768.75;4990173;28;45434;-80
2022/03/30 05:43:28;;;;;;;;;63.25;49.75;;;;;13.95;62.66;99769.84;4978662;28;45955;-82
2022/03/30 05:45:53;;;;;;;;;72.75;52.50;;;;;13.98;61.83;99782.28;4979931;28;45585;-78
2022/03/30 05:48:19;;;;;;;;;67.75;52.00;;;;;13.97;62.57;99780.59;4997255;28;45683;-82
2022/03/30 05:50:45;;;;;;;;;64.00;51.75;;;;;13.93;62.82;99780.28;5023638;28;46137;-83
2022/03/30 05:53:13;;;;;;;;;77.25;55.25;;;;;13.98;62.57;99787.78;5030444;28;45683;-82
2022/03/30 05:55:38;;;;;;;;;70.25;54.75;;;;;13.97;62.68;99799.91;5020876;28;47699;-85
2022/03/30 05:58:05;;;;;;;;;69.00;53.00;;;;;13.93;63.14;99796.84;5030145;28;45586;-84
2022/03/30 06:00:30;;;;;;;;;66.75;52.50;;;;;13.79;63.37;99777.09;5017953;28;47479;-81
2022/03/30 06:02:56;;;;;;;;;69.00;54.25;;;;;13.84;62.39;99793.69;5014821;28;45451;-79
2022/03/30 06:05:21;;;;;;;;;64.50;52.25;;;;;13.74;63.16;99799.03;5013222;28;45907;-81
2022/03/30 06:07:47;;;;;;;;;66.75;52.25;;;;;13.72;62.84;99796.53;5025334;28;45870;-82
2022/03/30 06:10:14;;;;;;;;;68.50;52.00;;;;;13.60;62.93;99787.53;5017294;28;48000;-83
2022/03/30 06:12:39;;;;;;;;;67.75;52.75;;;;;13.53;63.63;99781.38;5030393;28;45472;-83
2022/03/30 06:15:05;;;;;;;;;72.00;54.50;;;;;13.60;63.54;99801.31;5016132;28;45739;-84
2022/03/30 06:17:31;;;;;;;;;71.00;53.25;;;;;13.51;63.93;99795.41;5018346;28;45659;-89
2022/03/30 06:20:03;;;;;;;;;74.75;54.75;;;;;13.58;64.14;99801.56;5037882;28;47615;-85
2022/03/30 06:22:30;;;;;;;;;62.25;49.25;;;;;13.55;63.41;99796.56;5027746;28;45586;-85
2022/03/30 06:24:56;;;;;;;;;66.25;48.00;;;;;13.59;64.03;99808.75;5010448;28;45539;-78
2022/03/30 06:27:22;;;;;;;;;63.50;50.25;;;;;13.50;64.47;99787.38;5009406;28;46894;-78
2022/03/30 06:29:47;;;;;;;;;72.00;55.50;;;;;13.63;64.04;99805.50;5021235;28;47863;-78
2022/03/30 06:32:13;;;;;;;;;69.75;54.00;;;;;13.65;64.32;99803.31;5022114;28;45876;-76
2022/03/30 06:34:38;;;;;;;;;72.75;55.75;;;;;13.64;64.62;99798.88;5011907;28;45807;-77
2022/03/30 06:37:05;;;;;;;;;71.00;51.50;;;;;13.63;64.42;99794.47;5030445;28;45858;-77
2022/03/30 06:39:31;;;;;;;;;70.25;53.50;;;;;13.76;65.12;99807.91;5025952;28;45507;-78
2022/03/30 06:41:57;;;;;;;;;64.00;49.50;;;;;13.75;64.18;99801.53;5024374;28;45465;-78
2022/03/30 06:44:23;;;;;;;;;60.00;48.50;;;;;13.84;63.85;99801.94;5031275;28;45702;-79
2022/03/30 06:46:52;;;;;;;;;74.75;55.25;;;;;13.91;64.20;99813.63;5029871;28;45566;-86
2022/03/30 06:49:21;;;;;;;;;64.50;51.50;;;;;13.85;63.92;99800.88;5013187;28;47091;-88
2022/03/30 06:51:47;;;;;;;;;70.50;52.00;;;;;13.98;63.13;99815.38;5024938;28;45859;-86
2022/03/30 06:54:12;;;;;;;;;67.25;50.75;;;;;14.01;63.60;99812.09;5016396;28;45917;-81
2022/03/30 06:56:37;;;;;;;;;62.50;49.75;;;;;13.80;63.53;99778.72;5026261;28;45753;-81
2022/03/30 06:59:03;;;;;;;;;65.25;50.25;;;;;13.91;62.59;99802.59;5025622;28;48185;-81
2022/03/30 07:01:28;;;;;;;;;64.25;49.00;;;;;13.95;63.24;99808.44;5024321;28;45526;-82
2022/03/30 07:03:54;;;;;;;;;64.00;49.25;;;;;13.95;63.35;99809.28;5011064;28;45471;-84
2022/03/30 07:06:20;;;;;;;;;67.75;50.50;;;;;14.02;63.33;99816.53;5031947;28;45449;-82
2022/03/30 07:11:29;;;;;;;;;64.00;50.00;;;;;13.99;63.03;99806.00;5033208;28;45839;-81
2022/03/30 07:13:57;;;;;;;;;68.00;50.75;;;;;14.08;63.45;99815.50;5022704;28;45506;-81
2022/03/30 07:16:23;;;;;;;;;66.50;48.25;;;;;13.94;63.15;99787.50;5029233;28;45867;-78
2022/03/30 07:18:49;;;;;;;;;64.25;51.50;;;;;14.08;63.26;99815.50;5027283;28;45819;-80
2022/03/30 07:21:15;;;;;;;;;70.50;54.00;;;;;14.17;63.00;99807.63;5031600;28;45179;-78
2022/03/30 07:23:41;;;;;;;;;63.50;50.50;;;;;14.02;63.49;99787.03;5027176;28;45751;-81
2022/03/30 07:26:13;;;;;;;;;67.25;50.75;;;;;13.92;62.15;99762.94;5033651;28;46459;-87
2022/03/30 07:28:38;;;;;;;;;62.25;50.50;;;;;14.10;62.21;99800.38;5036601;28;45821;-86
2022/03/30 07:31:04;;;;;;;;;62.50;49.50;;;;;14.13;62.94;99793.50;5021549;28;45275;-85
2022/03/30 07:33:33;;;;;;;;;55.00;45.50;;;;;14.26;62.75;99812.44;5037358;28;45519;-84
2022/03/30 07:36:11;;;;;;;;;64.75;50.00;;;;;14.15;62.95;99788.59;5027356;28;46624;-86
2022/03/30 07:45:35;;;;;;;;;;;;;;;;;;;;;
2022/03/30 07:48:09;;;;;;;;;68.25;51.50;;;;;14.57;63.35;99815.56;5029884;28;73702;-81
2022/03/30 07:50:50;;;;;;;;;68.00;52.00;;;;;14.52;63.05;99803.63;5032175;28;46249;-81
2022/03/30 07:57:39;;;;;;;;;59.50;45.75;;;;;14.56;62.68;99808.38;4958787;28;45438;-83
2022/03/30 08:00:55;;;;;;;;;55.50;44.00;;;;;14.25;61.98;99785.97;4971881;28;45847;-82
2022/03/30 08:03:58;;;;;;;;;73.00;52.50;;;;;13.95;62.17;99745.88;4927233;28;46000;-80
2022/03/30 08:06:26;;;;;;;;;63.25;51.25;;;;;13.99;63.00;99773.75;4962482;28;46105;-82
2022/03/30 08:41:18;;;;;;;;;;;;;;;;;;;;;
2022/03/30 08:57:52;;;;;;;;;66.75;50.75;;;;;13.17;65.70;99806.41;4971021;28;45649;-85
2022/03/30 09:14:53;;;;;;;;;71.50;49.75;;;;;13.71;65.04;99805.91;4896782;28;45449;-83
2022/03/30 09:17:37;;;;;;;;;64.00;50.25;;;;;13.77;64.48;99779.25;4901057;28;45947;-87
2022/03/30 09:20:11;;;;;;;;;64.25;49.75;;;;;14.03;62.75;99785.13;4907485;28;45808;-81
2022/03/30 09:22:42;;;;;;;;;65.25;49.50;;;;;14.21;62.96;99790.31;5023484;28;46692;-81
2022/03/30 09:25:08;;;;;;;;;74.25;54.75;;;;;14.44;61.86;99814.03;5010329;28;46062;-81
2022/03/30 09:27:39;;;;;;;;;75.00;56.50;;;;;14.58;61.75;99806.22;5015294;28;45503;-81
2022/03/30 09:30:06;;;;;;;;;73.00;55.50;;;;;14.78;60.91;99802.84;5031307;28;45505;-86
2022/03/30 09:32:32;;;;;;;;;66.00;51.25;;;;;14.90;61.37;99804.63;5015143;28;48040;-85
2022/03/30 09:34:58;;;;;;;;;73.00;53.25;;;;;14.97;60.59;99785.91;5026715;28;45855;-85
2022/03/30 09:37:24;;;;;;;;;71.00;54.00;;;;;15.10;59.13;99774.44;5029178;28;45647;-83
2022/03/30 09:39:50;;;;;;;;;70.00;53.75;;;;;15.44;57.77;99798.19;5013696;28;45998;-84
2022/03/30 09:42:17;;;;;;;;;75.25;55.00;;;;;15.76;57.13;99800.06;5027111;28;45919;-83
2022/03/30 09:44:54;;;;;;;;;69.00;51.25;;;;;15.96;57.05;99803.00;5034761;28;45466;-85
2022/03/30 09:47:23;;;;;;;;;64.25;50.75;;;;;16.29;56.17;99809.25;5016975;28;45816;-84
2022/03/30 09:49:54;;;;;;;;;70.25;52.75;;;;;16.52;55.58;99805.16;5029402;28;45431;-84
2022/03/30 09:52:24;;;;;;;;;64.50;50.00;;;;;16.82;54.90;99800.00;5008092;28;48114;-82
2022/03/30 09:54:53;;;;;;;;;61.00;46.75;;;;;17.16;53.79;99796.75;5031644;28;45415;-84
2022/03/30 09:57:40;;;;;;;;;59.75;45.50;;;;;17.52;53.16;99780.94;5034507;28;45417;-84
2022/03/30 10:00:06;;;;;;;;;61.00;47.75;;;;;18.00;52.77;99798.06;5021153;28;46218;-82
2022/03/30 10:02:34;;;;;;;;;62.75;47.50;;;;;18.34;50.54;99779.91;5032403;28;46916;-81
2022/03/30 10:05:01;;;;;;;;;61.50;49.25;;;;;18.76;49.24;99786.91;5009506;28;45803;-83
2022/03/30 10:07:30;;;;;;;;;64.00;46.75;;;;;18.92;49.09;99786.84;5006038;28;45412;-82
2022/03/30 10:09:58;;;;;;;;;59.50;44.25;;;;;18.85;48.70;99785.22;5009708;28;45952;-84
2022/03/30 10:12:24;;;;;;;;;63.00;48.75;;;;;18.82;49.02;99791.31;5016783;28;47599;-84
2022/03/30 10:14:50;;;;;;;;;62.25;46.50;;;;;18.84;49.36;99782.69;5002226;28;45847;-84
2022/03/30 10:17:18;;;;;;;;;55.75;45.25;;;;;18.90;49.24;99794.63;5011209;28;45447;-85
2022/03/30 10:19:44;;;;;;;;;61.75;46.75;;;;;18.93;48.69;99767.09;5001175;28;46059;-84
2022/03/30 10:22:28;;;;;;;;;61.75;44.75;;;;;18.96;48.43;99780.41;5010844;28;47535;-80
2022/03/30 10:25:14;;;;;;;;;56.00;42.67;;;;;18.86;48.53;99786.03;5023887;28;45454;-80
2022/03/30 10:27:50;;;;;;;;;55.67;44.00;;;;;18.70;48.69;99782.50;5006210;28;45641;-86
2022/03/30 10:30:26;;;;;;;;;53.00;39.67;;;;;18.61;49.28;99776.72;5027830;28;45473;-80
2022/03/30 10:33:01;;;;;;;;;54.67;43.00;;;;;18.60;49.42;99779.78;5009887;28;46357;-84
2022/03/30 10:35:48;;;;;;;;;57.75;45.00;;;;;18.67;49.72;99771.97;5028692;28;45411;-85
2022/03/30 10:38:15;;;;;;;;;56.33;44.00;;;;;18.77;49.11;99777.47;5005760;28;45584;-84
2022/03/30 10:40:41;;;;;;;;;54.67;44.00;;;;;18.81;48.80;99778.53;5004579;28;45890;-81
2022/03/30 10:43:10;;;;;;;;;56.00;42.00;;;;;19.01;48.71;99771.19;5028911;28;48406;-80
2022/03/30 10:45:51;;;;;;;;;56.33;40.67;;;;;19.22;47.61;99775.50;5013801;28;45510;-82
2022/03/30 10:48:22;;;;;;;;;57.33;43.00;;;;;19.37;46.97;99762.56;4997444;28;46025;-80
2022/03/30 10:51:16;;;;;;;;;57.33;43.67;;;;;19.30;47.67;99731.53;5030605;28;45496;-90
2022/03/30 10:53:46;;;;;;;;;63.75;47.75;;;;;19.82;45.61;99746.59;5028330;28;47148;-82
2022/03/30 10:56:18;;;;;;;;;67.33;49.00;;;;;20.78;45.07;99751.22;5013809;28;45985;-89
2022/03/30 10:58:49;;;;;;;;;55.00;43.67;;;;;21.65;43.43;99748.94;5024007;28;45816;-81
2022/03/30 11:01:31;;;;;;;;;57.67;44.67;;;;;22.49;40.97;99741.41;5012454;28;47596;-81
2022/03/30 11:04:16;;;;;;;;;58.67;42.33;;;;;23.33;39.13;99741.13;5032026;28;45713;-80
2022/03/30 11:07:12;;;;;;;;;41.00;34.33;;;;;24.10;37.76;99737.09;5046342;28;44857;-88
2022/03/30 11:09:40;;;;;;;;;51.67;38.33;;;;;24.35;35.26;99725.44;5012263;28;45617;-82
2022/03/30 11:12:13;;;;;;;;;50.00;39.67;;;;;24.77;35.61;99725.84;5018302;28;45567;-83
2022/03/30 11:14:45;;;;;;;;;48.67;37.00;;;;;25.06;33.63;99736.41;5001750;28;46431;-83
2022/03/30 11:17:16;;;;;;;;;52.33;40.00;;;;;25.07;33.88;99734.41;5007323;28;45535;-83
2022/03/30 11:19:54;;;;;;;;;48.33;38.00;;;;;24.87;34.23;99725.50;5016589;28;46164;-83
2022/03/30 11:22:28;;;;;;;;;50.67;37.33;;;;;24.83;34.30;99730.13;5020640;28;46253;-83
2022/03/30 11:25:24;;;;;;;;;53.33;38.33;;;;;24.47;34.02;99712.41;5013540;28;47196;-83
2022/03/30 11:27:59;;;;;;;;;46.33;37.00;;;;;24.28;34.60;99714.69;5013126;28;46067;-83
2022/03/30 11:30:28;;;;;;;;;49.67;38.67;;;;;24.01;34.34;99705.41;5018506;28;45887;-84
2022/03/30 11:33:14;;;;;;;;;48.00;39.00;;;;;23.82;35.43;99702.84;5014701;28;47216;-81
2022/03/30 11:35:43;;;;;;;;;53.67;39.67;;;;;23.60;35.33;99714.94;5019523;28;45673;-82
2022/03/30 11:38:45;;;;;;;;;51.67;37.67;;;;;22.70;36.28;99643.13;5024730;28;45397;-83
2022/03/30 11:41:11;;;;;;;;;49.33;39.00;;;;;22.65;36.45;99702.75;4980892;28;45869;-82
2022/03/30 11:46:32;;;;;;;;;49.33;38.33;;;;;22.10;38.02;99686.09;5036856;28;45532;-83
2022/03/30 11:49:05;;;;;;;;;51.00;40.00;;;;;21.93;38.93;99700.69;5013584;28;45975;-80
2022/03/30 11:52:36;;;;;;;;;58.67;41.33;;;;;21.68;38.53;99691.69;5029584;28;45967;-81
2022/03/30 11:55:02;;;;;;;;;53.67;42.67;;;;;21.25;38.69;99647.28;4983051;28;47251;-81
2022/03/30 11:57:42;;;;;;;;;55.00;43.00;;;;;21.30;38.80;99666.72;4980271;28;45513;-86
2022/03/30 12:10:39;;;;;;;;;48.33;39.33;;;;;21.11;38.63;99655.66;4868943;29;45613;-85
2022/03/30 12:13:05;;;;;;;;;51.00;36.67;;;;;20.92;39.12;99636.19;4908545;28;45834;-83
2022/03/30 12:15:30;;;;;;;;;45.67;37.33;;;;;20.94;38.85;99631.97;4945090;28;46297;-86
2022/03/30 12:18:16;;;;;;;;;45.67;37.00;;;;;21.27;38.47;99668.16;4973528;28;45821;-83
2022/03/30 12:21:56;;;;;;;;;;;;;;;;;;;;;
2022/03/30 12:28:01;;;;;;;;;44.33;35.33;;;;;21.10;38.76;99634.47;4795506;29;45539;-83
2022/03/30 12:30:32;;;;;;;;;44.00;34.33;;;;;21.11;38.45;99636.94;4889043;28;46670;-87
2022/03/30 12:32:57;;;;;;;;;46.33;38.00;;;;;21.30;38.90;99652.75;5006761;28;46740;-83
2022/03/30 12:35:30;;;;;;;;;35.67;34.33;;;;;21.21;38.84;99630.34;5022808;28;45452;-83
2022/03/30 12:38:11;;;;;;;;;45.33;36.33;;;;;21.39;39.04;99647.31;5031617;28;45478;-87
2022/03/30 12:40:40;;;;;;;;;45.67;38.33;;;;;21.37;39.81;99649.59;5011889;28;46164;-85
2022/03/30 12:43:10;;;;;;;;;51.67;39.33;;;;;21.31;39.27;99646.88;5029430;28;47213;-90
2022/03/30 12:45:59;;;;;;;;;52.33;39.33;;;;;21.21;40.03;99647.06;5009768;28;45510;-91
2022/03/30 12:48:39;;;;;;;;;45.67;36.33;;;;;21.13;39.61;99623.50;5015699;28;45649;-87
2022/03/30 12:52:00;;;;;;;;;44.00;35.00;;;;;21.24;39.66;99629.75;5023846;28;46163;-86
2022/03/30 12:54:25;;;;;;;;;48.33;36.67;;;;;21.05;38.84;99593.56;5011720;28;45547;-83
2022/03/30 12:56:51;;;;;;;;;38.67;32.33;;;;;21.07;38.04;99579.31;5030636;28;45853;-82
2022/03/30 12:59:19;;;;;;;;;28.00;28.00;;;;;21.45;37.51;99624.59;5012434;28;45821;-90
2022/03/30 13:01:49;;;;;;;;;43.33;33.33;;;;;21.45;37.97;99626.53;5034066;28;45432;-88
2022/03/30 13:04:20;;;;;;;;;38.33;34.67;;;;;21.38;37.63;99596.28;5038603;28;45518;-88
2022/03/30 13:07:04;;;;;;;;;34.33;31.00;;;;;21.60;36.81;99614.28;5009377;28;45364;-84
2022/03/30 13:09:29;;;;;;;;;44.67;33.33;;;;;21.65;37.20;99606.63;5027986;28;45934;-83
2022/03/30 13:11:57;;;;;;;;;35.00;27.67;;;;;21.50;35.86;99598.59;5018119;28;46066;-83
2022/03/30 13:14:24;;;;;;;;;33.00;23.67;;;;;21.56;35.87;99608.50;5013336;28;46735;-84
2022/03/30 13:17:07;;;;;;;;;29.00;25.67;;;;;21.47;35.91;99605.56;5013383;28;45590;-84
2022/03/30 13:19:35;;;;;;;;;35.00;25.00;;;;;21.33;35.83;99599.16;5010419;28;45801;-84
2022/03/30 13:22:05;;;;;;;;;25.33;22.67;;;;;21.23;36.19;99589.03;5023512;28;46026;-82